Time;durP1;ratioP1;P1;durP2;ratioP2;P2;SDS_P1;SDS_P2;PMS_P1;PMS_P2;Temp;Humidity;BMP_temperature;BMP_pressure;BME280_temperature;BME280_humidity;BME280_pressure;Samples;Min_cycle;Max_cycle;Signal;HPM_P1;HPM_P2
2022/01/15 00:02:01;;;;;;;51.65;34.10;;;2.20;99.90;;;;;;4994315;28;20229;-74
2022/01/15 00:04:28;;;;;;;50.40;36.10;;;2.20;99.90;;;;;;4994621;28;20307;-72
2022/01/15 00:06:55;;;;;;;51.42;36.67;;;2.20;99.90;;;;;;4994564;28;20206;-72
2022/01/15 00:09:22;;;;;;;55.58;36.15;;;2.20;99.90;;;;;;4994257;28;20731;-71
2022/01/15 00:11:49;;;;;;;55.03;36.13;;;2.20;99.90;;;;;;4994853;28;20253;-71
2022/01/15 00:14:24;;;;;;;49.72;35.85;;;2.30;99.90;;;;;;4994747;28;20205;-71
2022/01/15 00:16:57;;;;;;;46.13;34.08;;;2.40;99.90;;;;;;4995095;28;20229;-72
2022/01/15 00:19:40;;;;;;;43.70;31.33;;;2.40;99.90;;;;;;4993907;28;20249;-70
2022/01/15 00:22:06;;;;;;;46.30;32.60;;;2.40;99.90;;;;;;4994150;28;20225;-70
2022/01/15 00:24:33;;;;;;;44.90;32.10;;;2.40;99.90;;;;;;4994321;28;20215;-70
2022/01/15 00:27:00;;;;;;;45.47;30.10;;;2.40;99.90;;;;;;4994081;28;20202;-70
2022/01/15 00:29:29;;;;;;;44.00;31.58;;;2.40;99.90;;;;;;4993570;28;20224;-70
2022/01/15 00:31:56;;;;;;;43.65;31.77;;;2.40;99.90;;;;;;4993583;28;20222;-70
2022/01/15 00:34:24;;;;;;;46.95;33.80;;;2.10;99.90;;;;;;4993405;28;20686;-70
2022/01/15 00:36:51;;;;;;;43.97;31.25;;;1.90;99.90;;;;;;4994240;28;20229;-70
2022/01/15 00:39:18;;;;;;;47.53;33.25;;;2.00;99.90;;;;;;4993259;28;20300;-70
2022/01/15 00:41:45;;;;;;;48.40;34.20;;;2.10;99.90;;;;;;4993517;28;20715;-71
2022/01/15 00:44:12;;;;;;;49.17;33.25;;;2.10;99.90;;;;;;4993895;28;20640;-71
2022/01/15 00:46:39;;;;;;;48.05;32.70;;;2.10;99.90;;;;;;4994140;28;20391;-71
2022/01/15 00:49:06;;;;;;;50.40;33.50;;;2.10;99.90;;;;;;4993010;28;20201;-71
2022/01/15 00:51:34;;;;;;;46.22;34.15;;;2.20;99.90;;;;;;4993321;28;20316;-70
2022/01/15 00:54:03;;;;;;;48.20;34.17;;;2.10;99.90;;;;;;4993642;28;20215;-70
2022/01/15 00:56:30;;;;;;;47.47;33.55;;;2.20;99.90;;;;;;4993718;28;20232;-70
2022/01/15 00:59:00;;;;;;;52.28;35.72;;;2.20;99.90;;;;;;4993195;28;20579;-71
2022/01/15 01:01:27;;;;;;;50.67;35.40;;;2.20;99.90;;;;;;4993506;28;20228;-70
2022/01/15 01:03:53;;;;;;;49.33;34.67;;;2.10;99.90;;;;;;4994424;28;20216;-73
2022/01/15 01:06:21;;;;;;;46.90;33.10;;;2.20;99.90;;;;;;4995236;28;20201;-73
2022/01/15 01:08:49;;;;;;;46.13;32.65;;;2.20;99.90;;;;;;4993806;28;20212;-73
2022/01/15 01:11:18;;;;;;;47.40;31.90;;;2.10;99.90;;;;;;4992628;28;20210;-72
2022/01/15 01:24:46;;;;;;;52.20;33.70;;;1.80;99.90;;;;;;5002055;28;20200;-71
2022/01/15 01:27:18;;;;;;;46.30;33.95;;;1.50;99.90;;;;;;5003939;28;20291;-71
2022/01/15 01:30:08;;;;;;;49.28;31.98;;;1.60;99.90;;;;;;5012841;28;20638;-71
2022/01/15 01:32:44;;;;;;;50.35;34.28;;;1.60;99.90;;;;;;5012912;28;20577;-71
2022/01/15 01:35:15;;;;;;;47.55;34.55;;;1.50;99.90;;;;;;5013575;28;20204;-71
2022/01/15 01:37:46;;;;;;;47.58;33.58;;;1.50;99.90;;;;;;5012988;28;20232;-70
2022/01/15 01:40:25;;;;;;;45.95;33.05;;;1.40;99.90;;;;;;5012249;28;20220;-70
2022/01/15 01:43:02;;;;;;;50.67;33.60;;;1.50;99.90;;;;;;5012281;28;20322;-70
2022/01/15 01:45:29;;;;;;;50.70;33.90;;;1.60;99.90;;;;;;5012917;28;20195;-70
2022/01/15 01:47:56;;;;;;;47.85;32.90;;;1.70;99.90;;;;;;5012873;28;20287;-72
2022/01/15 01:50:25;;;;;;;44.85;32.25;;;1.60;99.90;;;;;;5012225;28;20200;-72
2022/01/15 01:52:54;;;;;;;47.95;32.95;;;1.60;99.90;;;;;;5012581;28;20228;-70
2022/01/15 01:55:24;;;;;;;47.22;33.15;;;1.60;99.90;;;;;;5012601;28;20215;-71
2022/01/15 01:57:52;;;;;;;46.33;31.23;;;1.50;99.90;;;;;;5012686;28;20252;-71
2022/01/15 02:00:23;;;;;;;46.50;31.90;;;1.60;99.90;;;;;;5011986;28;20291;-71
2022/01/15 02:02:52;;;;;;;49.83;33.17;;;1.60;99.90;;;;;;5012634;28;20567;-72
2022/01/15 02:05:19;;;;;;;47.22;31.80;;;1.60;99.90;;;;;;5012444;28;20201;-71
2022/01/15 02:07:46;;;;;;;44.78;31.15;;;1.60;99.90;;;;;;5012638;28;20209;-72
2022/01/15 02:10:16;;;;;;;48.80;29.55;;;1.60;99.90;;;;;;5011940;28;20204;-72
2022/01/15 02:12:45;;;;;;;43.42;28.92;;;1.60;99.90;;;;;;5012513;28;20244;-72
2022/01/15 02:15:14;;;;;;;39.42;30.15;;;1.60;99.90;;;;;;5012473;28;20296;-72
2022/01/15 02:17:42;;;;;;;40.67;28.10;;;1.70;99.90;;;;;;5013454;28;20221;-72
2022/01/15 02:20:48;;;;;;;43.40;30.02;;;1.70;99.90;;;;;;5011718;28;20212;-69
2022/01/15 02:23:33;;;;;;;42.05;29.95;;;1.60;99.90;;;;;;5014464;28;20274;-70
2022/01/15 02:26:01;;;;;;;38.78;26.90;;;1.40;99.90;;;;;;5016191;28;20212;-70
2022/01/15 02:28:32;;;;;;;39.72;28.15;;;1.60;99.90;;;;;;5015628;28;20197;-69
2022/01/15 02:31:01;;;;;;;36.63;27.08;;;1.60;99.90;;;;;;5015079;28;20244;-71
2022/01/15 02:33:28;;;;;;;38.63;27.45;;;1.70;99.90;;;;;;5015438;28;20235;-73
2022/01/15 02:35:57;;;;;;;38.85;27.20;;;1.50;99.90;;;;;;5015737;28;20204;-71
2022/01/15 02:38:24;;;;;;;36.95;26.75;;;1.50;99.90;;;;;;5015883;28;20246;-72
2022/01/15 02:40:51;;;;;;;39.03;28.63;;;1.60;99.90;;;;;;5015065;28;20774;-71
2022/01/15 02:43:20;;;;;;;37.55;27.65;;;1.60;99.90;;;;;;5016138;28;20312;-71
2022/01/15 02:45:54;;;;;;;39.05;28.70;;;1.60;99.90;;;;;;5017022;28;20563;-71
2022/01/15 02:48:22;;;;;;;42.00;28.90;;;1.70;99.90;;;;;;5017475;28;20209;-71
2022/01/15 02:50:49;;;;;;;39.55;27.52;;;1.40;99.90;;;;;;5016800;28;20201;-71
2022/01/15 02:53:18;;;;;;;47.03;28.65;;;1.30;99.90;;;;;;5017384;28;20225;-71
2022/01/15 02:55:46;;;;;;;43.17;30.88;;;1.40;99.90;;;;;;5017270;28;20611;-71
2022/01/15 02:58:13;;;;;;;40.53;28.95;;;1.40;99.90;;;;;;5017215;28;20220;-71
2022/01/15 03:00:40;;;;;;;39.95;28.42;;;1.40;99.90;;;;;;5016710;28;20227;-71
2022/01/15 03:03:08;;;;;;;39.38;28.60;;;1.50;99.90;;;;;;5016359;28;20225;-71
2022/01/15 03:05:35;;;;;;;41.13;29.55;;;1.50;99.90;;;;;;5017003;28;20200;-71
2022/01/15 03:08:02;;;;;;;43.47;29.10;;;1.50;99.90;;;;;;5016844;28;20203;-71
2022/01/15 03:10:30;;;;;;;42.00;29.52;;;1.50;99.90;;;;;;5016725;28;20608;-71
2022/01/15 03:12:58;;;;;;;40.75;28.35;;;1.60;99.90;;;;;;5016454;28;20316;-71
2022/01/15 03:15:25;;;;;;;40.97;28.33;;;1.60;99.90;;;;;;5016376;28;20212;-71
2022/01/15 03:17:53;;;;;;;40.50;29.70;;;1.60;99.90;;;;;;5016365;28;20220;-71
2022/01/15 03:20:21;;;;;;;36.20;27.25;;;1.50;99.90;;;;;;5015967;28;20296;-71
2022/01/15 03:22:48;;;;;;;37.85;28.80;;;1.50;99.90;;;;;;5016262;28;20231;-71
2022/01/15 03:25:15;;;;;;;40.08;26.92;;;1.60;99.90;;;;;;5016083;28;20215;-71
2022/01/15 03:27:44;;;;;;;37.38;27.23;;;1.60;99.90;;;;;;5016018;28;20205;-71
2022/01/15 03:30:13;;;;;;;37.90;26.52;;;1.70;99.90;;;;;;5016434;28;20212;-71
2022/01/15 03:32:43;;;;;;;34.83;25.25;;;1.70;99.90;;;;;;5016392;28;20231;-71
2022/01/15 03:35:12;;;;;;;37.88;26.65;;;1.70;99.90;;;;;;5016358;28;20216;-71
2022/01/15 03:37:39;;;;;;;33.88;24.52;;;1.40;99.90;;;;;;5015849;28;20224;-71
2022/01/15 03:40:08;;;;;;;38.90;24.92;;;1.30;99.90;;;;;;5015559;28;20697;-71
2022/01/15 03:42:34;;;;;;;34.20;24.80;;;1.50;99.90;;;;;;5015828;28;20229;-71
2022/01/15 03:45:05;;;;;;;31.60;22.98;;;1.50;99.90;;;;;;5015964;28;20300;-71
2022/01/15 03:47:32;;;;;;;31.40;22.80;;;1.50;99.90;;;;;;5016338;28;20215;-71
2022/01/15 03:49:59;;;;;;;38.17;25.42;;;1.50;99.90;;;;;;5016138;28;20299;-71
2022/01/15 03:52:25;;;;;;;35.80;25.15;;;1.40;99.90;;;;;;5015605;28;20590;-70
2022/01/15 03:54:52;;;;;;;32.70;24.83;;;1.40;99.90;;;;;;5015770;28;20207;-71
2022/01/15 03:57:19;;;;;;;32.63;25.90;;;1.20;99.90;;;;;;5015536;28;20311;-71
2022/01/15 03:59:46;;;;;;;36.25;25.38;;;1.10;99.90;;;;;;5015508;28;20218;-70
2022/01/15 04:02:14;;;;;;;35.78;26.25;;;1.20;99.90;;;;;;5015507;28;20225;-71
2022/01/15 04:04:41;;;;;;;31.17;24.63;;;1.00;99.90;;;;;;5015393;28;20375;-71
2022/01/15 04:07:08;;;;;;;38.78;27.60;;;1.20;99.90;;;;;;5015161;28;20200;-71
2022/01/15 04:09:35;;;;;;;36.60;25.80;;;1.20;99.90;;;;;;5015421;28;20205;-71
2022/01/15 04:12:02;;;;;;;37.70;26.67;;;1.20;99.90;;;;;;5014684;28;20315;-71
2022/01/15 04:14:29;;;;;;;36.20;26.52;;;1.30;99.90;;;;;;5015530;28;20227;-71
2022/01/15 04:16:56;;;;;;;35.30;26.33;;;1.30;99.90;;;;;;5015531;28;20227;-71
2022/01/15 04:19:25;;;;;;;35.67;26.05;;;1.30;99.90;;;;;;5015368;28;20245;-71
2022/01/15 04:21:52;;;;;;;36.03;27.10;;;1.20;99.90;;;;;;5014653;28;20260;-71
2022/01/15 04:24:20;;;;;;;35.58;26.35;;;1.20;99.90;;;;;;5015153;28;20205;-71
2022/01/15 04:26:47;;;;;;;36.75;25.95;;;1.30;99.90;;;;;;5014974;28;20247;-71
2022/01/15 04:29:15;;;;;;;37.67;26.45;;;1.20;99.90;;;;;;5014644;28;20268;-71
2022/01/15 04:31:48;;;;;;;39.08;26.38;;;1.20;99.90;;;;;;5014644;28;20315;-71
2022/01/15 04:34:16;;;;;;;37.42;25.80;;;1.30;99.90;;;;;;5014727;28;20193;-71
2022/01/15 04:36:44;;;;;;;36.97;25.70;;;1.30;99.90;;;;;;5014758;28;20205;-71
2022/01/15 04:39:11;;;;;;;37.17;27.05;;;1.30;99.90;;;;;;5015636;28;20296;-71
2022/01/15 04:41:38;;;;;;;36.00;26.17;;;1.30;99.90;;;;;;5014574;28;20303;-71
2022/01/15 04:44:05;;;;;;;36.10;25.77;;;1.30;99.90;;;;;;5015309;28;20211;-70
2022/01/15 04:46:33;;;;;;;34.20;25.67;;;1.30;99.90;;;;;;5014373;28;20208;-70
2022/01/15 04:49:00;;;;;;;34.00;25.80;;;1.40;99.90;;;;;;5014540;28;20669;-71
2022/01/15 04:51:26;;;;;;;35.33;25.27;;;1.40;99.90;;;;;;5014545;28;20662;-71
2022/01/15 04:53:55;;;;;;;31.85;24.73;;;1.40;99.90;;;;;;5014731;28;20304;-71
2022/01/15 04:56:22;;;;;;;33.67;25.58;;;1.30;99.90;;;;;;5014556;28;20216;-71
2022/01/15 04:58:49;;;;;;;36.97;26.48;;;1.10;99.90;;;;;;5014743;28;20731;-70
2022/01/15 05:01:16;;;;;;;36.72;27.40;;;1.00;99.90;;;;;;5013801;28;20204;-70
2022/01/15 05:03:43;;;;;;;40.97;27.38;;;1.00;99.90;;;;;;5014253;28;20296;-70
2022/01/15 05:06:10;;;;;;;39.17;27.23;;;0.90;99.90;;;;;;5014431;28;20210;-70
2022/01/15 05:08:37;;;;;;;42.33;26.77;;;0.70;99.90;;;;;;5014083;28;20287;-70
2022/01/15 05:11:13;;;;;;;38.58;26.60;;;0.80;99.90;;;;;;5014127;28;20616;-71
2022/01/15 05:13:40;;;;;;;35.55;25.98;;;0.90;99.90;;;;;;5014252;28;20196;-70
2022/01/15 05:16:07;;;;;;;40.30;28.08;;;1.00;99.90;;;;;;5014271;28;20250;-71
2022/01/15 05:18:34;;;;;;;36.45;25.92;;;1.00;99.90;;;;;;5014397;28;20287;-71
2022/01/15 05:21:01;;;;;;;38.30;26.05;;;1.00;99.90;;;;;;5014310;28;20299;-71
2022/01/15 05:23:28;;;;;;;39.28;27.23;;;1.10;99.90;;;;;;5014854;28;20256;-71
2022/01/15 05:25:55;;;;;;;40.40;26.25;;;1.00;99.90;;;;;;5014621;28;20292;-70
2022/01/15 05:28:23;;;;;;;34.80;25.48;;;0.90;99.90;;;;;;5014096;28;20205;-70
2022/01/15 05:30:50;;;;;;;39.60;27.73;;;1.00;99.90;;;;;;5014100;28;20211;-70
2022/01/15 05:33:17;;;;;;;44.67;29.58;;;1.00;99.90;;;;;;5014398;28;20311;-71
2022/01/15 05:35:44;;;;;;;37.33;28.17;;;0.80;99.90;;;;;;5014303;28;20589;-70
2022/01/15 05:38:11;;;;;;;48.70;29.80;;;0.60;99.90;;;;;;5014287;28;20227;-70
2022/01/15 05:40:38;;;;;;;37.15;28.83;;;0.50;99.90;;;;;;5014160;28;20730;-71
2022/01/15 05:43:05;;;;;;;39.80;28.50;;;0.40;99.90;;;;;;5013696;28;20316;-70
2022/01/15 05:45:34;;;;;;;37.03;27.45;;;0.50;99.90;;;;;;5014345;28;20617;-70
2022/01/15 05:48:01;;;;;;;39.13;28.27;;;0.60;99.90;;;;;;5014341;28;20197;-70
2022/01/15 05:50:27;;;;;;;38.90;27.10;;;0.70;99.90;;;;;;5013973;28;20211;-71
2022/01/15 05:52:54;;;;;;;36.90;27.30;;;0.80;99.90;;;;;;5013954;28;20231;-71
2022/01/15 05:55:21;;;;;;;36.88;28.02;;;0.90;99.90;;;;;;5013808;28;20204;-71
2022/01/15 05:57:48;;;;;;;38.95;28.23;;;1.00;99.90;;;;;;5017075;28;20315;-71
2022/01/15 06:00:15;;;;;;;35.78;26.30;;;1.10;99.90;;;;;;5017495;28;20201;-70
2022/01/15 06:02:43;;;;;;;37.95;26.45;;;1.10;99.90;;;;;;5017968;28;20231;-70
2022/01/15 06:05:11;;;;;;;37.05;26.98;;;1.10;99.90;;;;;;5018017;28;20206;-71
2022/01/15 06:07:38;;;;;;;35.05;26.30;;;1.10;99.90;;;;;;5017909;28;20208;-71
2022/01/15 06:10:05;;;;;;;36.70;25.33;;;1.10;99.90;;;;;;5017561;28;20295;-71
2022/01/15 06:12:41;;;;;;;34.85;26.33;;;1.20;99.90;;;;;;5017588;28;20327;-70
2022/01/15 06:15:09;;;;;;;36.42;26.52;;;1.10;99.90;;;;;;5017848;28;20201;-70
2022/01/15 06:17:36;;;;;;;32.97;25.13;;;0.90;99.90;;;;;;5017484;28;20307;-71
2022/01/15 06:20:05;;;;;;;38.80;26.70;;;0.90;99.90;;;;;;5017891;28;20208;-71
2022/01/15 06:22:32;;;;;;;34.40;26.88;;;1.00;99.90;;;;;;5017663;28;20225;-71
2022/01/15 06:24:59;;;;;;;35.42;26.98;;;0.90;99.90;;;;;;5017608;28;20295;-71
2022/01/15 06:27:26;;;;;;;31.33;25.15;;;1.00;99.90;;;;;;5017533;28;20205;-70
2022/01/15 06:29:55;;;;;;;37.75;26.17;;;1.00;99.90;;;;;;5017293;28;20661;-70
2022/01/15 06:32:22;;;;;;;37.33;26.13;;;1.10;99.90;;;;;;5017409;28;20279;-70
2022/01/15 06:34:49;;;;;;;36.35;26.35;;;1.10;99.90;;;;;;5017585;28;20651;-70
2022/01/15 06:37:18;;;;;;;33.95;25.75;;;1.10;99.90;;;;;;5017348;28;20558;-70
2022/01/15 06:39:46;;;;;;;39.53;27.50;;;1.10;99.90;;;;;;5016967;28;20565;-70
2022/01/15 06:42:13;;;;;;;39.50;28.33;;;1.00;99.90;;;;;;5016906;28;20323;-70
2022/01/15 06:44:39;;;;;;;37.60;27.38;;;0.70;99.90;;;;;;5017218;28;20742;-70
2022/01/15 06:47:06;;;;;;;36.00;26.52;;;0.70;99.90;;;;;;5017201;28;20295;-70
2022/01/15 06:49:33;;;;;;;43.13;29.05;;;0.90;99.90;;;;;;5016740;28;20292;-70
2022/01/15 06:52:00;;;;;;;39.58;27.75;;;0.70;99.90;;;;;;5016988;28;20621;-70
2022/01/15 06:54:29;;;;;;;34.20;25.35;;;0.60;99.90;;;;;;5017001;28;20240;-70
2022/01/15 06:56:55;;;;;;;37.38;26.33;;;0.70;99.90;;;;;;5016852;28;20287;-70
2022/01/15 06:59:23;;;;;;;38.58;27.73;;;0.70;99.90;;;;;;5016820;28;20319;-70
2022/01/15 07:01:50;;;;;;;35.33;27.15;;;0.70;99.90;;;;;;5016451;28;20247;-70
2022/01/15 07:04:16;;;;;;;37.78;27.27;;;0.60;99.90;;;;;;5017135;28;20550;-71
2022/01/15 07:06:43;;;;;;;35.67;26.52;;;0.70;99.90;;;;;;5016463;28;20312;-71
2022/01/15 07:09:10;;;;;;;37.67;26.38;;;0.70;99.90;;;;;;5015639;28;20572;-70
2022/01/15 07:11:38;;;;;;;32.95;26.88;;;0.60;99.90;;;;;;5016247;28;20221;-70
2022/01/15 07:14:05;;;;;;;35.97;25.55;;;0.50;99.90;;;;;;5016691;28;20300;-70
2022/01/15 07:16:34;;;;;;;36.38;27.00;;;0.60;99.90;;;;;;5016304;28;20207;-70
2022/01/15 07:19:01;;;;;;;39.20;27.80;;;0.60;99.90;;;;;;5016186;28;20221;-70
2022/01/15 07:21:27;;;;;;;39.05;28.58;;;0.60;99.90;;;;;;5015925;28;20296;-70
2022/01/15 07:23:54;;;;;;;39.35;29.08;;;0.50;99.90;;;;;;5016163;28;20205;-70
2022/01/15 07:26:21;;;;;;;41.22;26.15;;;0.40;99.90;;;;;;5016372;28;20201;-70
2022/01/15 07:28:49;;;;;;;41.10;27.95;;;0.40;99.90;;;;;;5016153;28;20205;-70
2022/01/15 07:31:16;;;;;;;38.20;27.63;;;0.40;99.90;;;;;;5015632;28;20296;-70
2022/01/15 07:33:43;;;;;;;45.58;30.63;;;0.30;99.90;;;;;;5016422;28;20295;-70
2022/01/15 07:36:10;;;;;;;41.75;27.67;;;0.30;99.90;;;;;;5015645;28;20301;-70
2022/01/15 07:38:37;;;;;;;36.22;28.05;;;0.50;99.90;;;;;;5015816;28;20692;-70
2022/01/15 07:41:05;;;;;;;36.80;28.10;;;0.60;99.90;;;;;;5015160;28;20215;-70
2022/01/15 07:43:32;;;;;;;42.30;27.60;;;0.50;99.90;;;;;;5016091;28;20244;-70
2022/01/15 07:46:00;;;;;;;38.55;28.15;;;0.50;99.90;;;;;;5015726;28;20651;-70
2022/01/15 07:48:27;;;;;;;37.97;27.90;;;0.60;99.90;;;;;;5015367;28;20661;-70
2022/01/15 07:50:54;;;;;;;40.33;28.30;;;0.70;99.90;;;;;;5015444;28;20236;-70
2022/01/15 07:53:22;;;;;;;36.72;26.08;;;0.80;99.90;;;;;;5015413;28;20695;-70
2022/01/15 07:55:49;;;;;;;38.42;27.80;;;0.90;99.90;;;;;;5015596;28;20216;-70
2022/01/15 07:58:16;;;;;;;38.95;28.08;;;0.90;99.90;;;;;;5015208;28;20229;-70
2022/01/15 08:00:43;;;;;;;41.47;26.77;;;0.60;99.90;;;;;;5015051;28;20205;-70
2022/01/15 08:03:11;;;;;;;35.45;25.92;;;0.50;99.90;;;;;;5015281;28;20230;-70
2022/01/15 08:05:38;;;;;;;41.60;29.63;;;0.40;99.90;;;;;;5015304;28;20311;-70
2022/01/15 08:08:05;;;;;;;39.88;27.42;;;0.30;99.90;;;;;;5014900;28;20240;-70
2022/01/15 08:10:32;;;;;;;44.50;29.70;;;0.30;99.90;;;;;;5014872;28;20213;-70
2022/01/15 08:12:59;;;;;;;41.85;28.13;;;0.40;99.90;;;;;;5014624;28;20239;-71
2022/01/15 08:15:26;;;;;;;36.58;28.20;;;0.30;99.90;;;;;;5015248;28;20232;-70
2022/01/15 08:17:53;;;;;;;37.67;28.98;;;0.40;99.90;;;;;;5015154;28;20293;-70
2022/01/15 08:20:21;;;;;;;40.45;28.08;;;0.60;99.90;;;;;;5013907;28;20295;-70
2022/01/15 08:22:51;;;;;;;35.92;26.75;;;0.70;99.90;;;;;;5015634;28;20231;-70
2022/01/15 08:25:17;;;;;;;38.67;26.40;;;0.90;99.90;;;;;;5015266;28;20299;-70
2022/01/15 08:27:45;;;;;;;36.92;25.60;;;1.00;99.90;;;;;;5014922;28;20558;-70
2022/01/15 08:30:12;;;;;;;33.47;25.15;;;1.00;99.90;;;;;;5014923;28;20196;-70
2022/01/15 08:32:39;;;;;;;35.00;26.23;;;1.10;99.90;;;;;;5015147;28;20554;-70
2022/01/15 08:35:07;;;;;;;38.05;27.23;;;1.10;99.90;;;;;;5014876;28;20291;-70
2022/01/15 08:37:37;;;;;;;36.63;27.58;;;1.00;99.90;;;;;;5014677;28;20213;-70
2022/01/15 08:40:04;;;;;;;42.35;28.02;;;0.90;99.90;;;;;;5014412;28;20231;-70
2022/01/15 08:42:31;;;;;;;34.97;27.23;;;1.00;99.90;;;;;;5014272;28;20556;-70
2022/01/15 08:44:58;;;;;;;38.05;29.65;;;0.80;99.90;;;;;;5014353;28;20299;-70
2022/01/15 08:47:25;;;;;;;39.60;30.38;;;0.80;99.90;;;;;;5014258;28;20283;-70
2022/01/15 08:49:53;;;;;;;42.95;32.05;;;0.50;99.90;;;;;;5014549;28;20204;-70
2022/01/15 08:52:20;;;;;;;47.75;32.75;;;0.40;99.90;;;;;;5014499;28;20260;-70
2022/01/15 08:54:48;;;;;;;47.08;33.53;;;0.20;99.90;;;;;;5014592;28;20201;-70
2022/01/15 08:57:15;;;;;;;46.90;36.60;;;0.00;99.90;;;;;;5014612;28;20207;-70
2022/01/15 08:59:42;;;;;;;51.28;36.17;;;-0.10;99.90;;;;;;5014351;28;20315;-70
2022/01/15 09:02:09;;;;;;;51.50;36.45;;;-0.10;99.90;;;;;;5014348;28;20225;-70
2022/01/15 09:04:35;;;;;;;51.38;37.40;;;-0.10;99.90;;;;;;5015108;28;20208;-70
2022/01/15 09:07:02;;;;;;;51.45;37.22;;;-0.10;99.90;;;;;;5014473;28;20295;-70
2022/01/15 09:09:29;;;;;;;52.30;37.20;;;-0.10;99.90;;;;;;5014342;28;20208;-70
2022/01/15 09:11:57;;;;;;;52.35;35.42;;;-0.20;99.90;;;;;;5013767;28;20754;-70
2022/01/15 09:14:25;;;;;;;52.60;36.65;;;0.00;99.90;;;;;;5014627;28;20300;-70
2022/01/15 09:16:51;;;;;;;51.33;35.45;;;0.00;99.90;;;;;;5014278;28;20246;-70
2022/01/15 09:19:19;;;;;;;48.90;35.83;;;0.10;99.90;;;;;;5013916;28;20220;-70
2022/01/15 09:21:47;;;;;;;49.75;35.20;;;0.30;99.90;;;;;;5013924;28;20315;-70
2022/01/15 09:24:14;;;;;;;53.75;35.50;;;0.50;99.90;;;;;;5013664;28;20303;-70
2022/01/15 09:26:59;;;;;;;48.00;33.03;;;0.70;99.90;;;;;;5014002;28;20303;-70
2022/01/15 09:32:15;;;;;;;47.80;33.80;;;1.10;99.90;;;;;;4999466;28;20654;-71
2022/01/15 09:34:41;;;;;;;42.55;32.85;;;1.20;99.90;;;;;;5018019;28;20205;-70
2022/01/15 09:37:08;;;;;;;45.55;33.00;;;1.30;99.90;;;;;;5018145;28;20332;-70
2022/01/15 09:39:36;;;;;;;46.75;35.72;;;1.30;99.90;;;;;;5018137;28;20386;-70
2022/01/15 09:42:04;;;;;;;51.50;36.13;;;1.20;99.90;;;;;;5017735;28;20331;-70
2022/01/15 09:44:34;;;;;;;53.22;37.90;;;1.20;99.90;;;;;;5017764;28;20215;-70
2022/01/15 09:47:02;;;;;;;56.75;40.05;;;1.20;99.90;;;;;;5017947;28;20251;-70
2022/01/15 09:49:29;;;;;;;50.78;36.88;;;1.10;99.90;;;;;;5017808;28;20567;-70
2022/01/15 09:51:56;;;;;;;48.35;35.70;;;1.30;99.90;;;;;;5017332;28;20227;-70
2022/01/15 09:54:23;;;;;;;49.67;39.30;;;1.40;99.90;;;;;;5017412;28;20247;-70
2022/01/15 09:56:50;;;;;;;54.58;39.80;;;1.30;99.90;;;;;;5018008;28;20210;-70
2022/01/15 09:59:17;;;;;;;54.90;37.15;;;1.20;99.90;;;;;;5017261;28;20220;-70
2022/01/15 10:01:47;;;;;;;52.03;38.47;;;1.20;99.90;;;;;;5017493;28;20319;-70
2022/01/15 10:04:14;;;;;;;52.05;39.17;;;1.30;99.90;;;;;;5018435;28;20211;-70
2022/01/15 10:07:12;;;;;;;53.85;40.53;;;1.30;99.90;;;;;;5017766;28;20208;-70
2022/01/15 10:09:39;;;;;;;54.88;40.40;;;1.30;99.90;;;;;;5017266;28;20201;-70
2022/01/15 10:12:07;;;;;;;54.22;40.58;;;1.10;99.90;;;;;;5017264;28;20702;-70
2022/01/15 10:14:36;;;;;;;55.35;40.42;;;1.10;99.90;;;;;;5017472;28;20201;-70
2022/01/15 10:17:20;;;;;;;55.67;39.88;;;1.10;99.90;;;;;;5017364;28;20208;-70
2022/01/15 10:19:47;;;;;;;56.45;40.08;;;1.00;99.90;;;;;;5017523;28;20575;-70
2022/01/15 10:22:16;;;;;;;52.03;40.30;;;1.00;99.90;;;;;;5016938;28;20229;-70
2022/01/15 10:24:51;;;;;;;54.95;40.63;;;0.90;99.90;;;;;;5017842;28;20316;-70
2022/01/15 10:27:27;;;;;;;53.72;39.15;;;0.90;99.90;;;;;;5017190;28;20204;-70
2022/01/15 10:29:57;;;;;;;55.78;40.67;;;0.90;99.90;;;;;;5017607;28;20236;-70
2022/01/15 10:32:28;;;;;;;49.22;36.45;;;1.00;99.90;;;;;;5017420;28;20228;-70
2022/01/15 10:34:56;;;;;;;52.80;38.60;;;1.10;99.90;;;;;;5017006;28;20231;-70
2022/01/15 10:37:25;;;;;;;54.58;38.47;;;1.10;99.90;;;;;;5016974;28;20204;-70
2022/01/15 10:39:58;;;;;;;53.10;39.10;;;1.10;99.90;;;;;;5016893;28;20362;-70
2022/01/15 10:42:26;;;;;;;53.83;38.90;;;1.10;99.90;;;;;;5015847;28;20233;-70
2022/01/15 10:44:53;;;;;;;51.55;39.40;;;1.20;99.90;;;;;;5016716;28;20204;-70
2022/01/15 10:47:22;;;;;;;55.78;39.65;;;1.30;99.90;;;;;;5016488;28;20205;-70
2022/01/15 10:49:51;;;;;;;54.70;39.70;;;1.30;99.90;;;;;;5016803;28;20205;-70
2022/01/15 10:52:20;;;;;;;52.97;36.85;;;1.30;99.90;;;;;;5016375;28;20718;-70
2022/01/15 10:54:57;;;;;;;60.28;41.35;;;1.40;99.90;;;;;;5011899;28;20311;-71
2022/01/15 10:57:26;;;;;;;54.42;40.25;;;1.40;99.90;;;;;;5015254;28;20670;-71
2022/01/15 11:00:10;;;;;;;52.50;38.50;;;1.40;99.90;;;;;;5014961;28;20221;-71
2022/01/15 11:02:37;;;;;;;58.25;40.83;;;1.40;99.90;;;;;;5013530;28;20315;-71
2022/01/15 11:05:26;;;;;;;55.55;41.25;;;1.40;99.90;;;;;;5014866;28;20212;-71
2022/01/15 11:08:02;;;;;;;57.28;39.85;;;1.50;99.90;;;;;;5014696;28;20213;-71
2022/01/15 11:10:30;;;;;;;55.85;40.05;;;1.50;99.90;;;;;;5014461;28;20200;-71
2022/01/15 11:12:57;;;;;;;54.90;38.08;;;1.40;99.90;;;;;;5015509;28;20235;-71
2022/01/15 11:15:24;;;;;;;50.90;38.00;;;1.50;99.90;;;;;;5015000;28;20212;-70
2022/01/15 11:17:51;;;;;;;53.03;39.00;;;1.70;99.90;;;;;;5014741;28;20208;-70
2022/01/15 11:20:24;;;;;;;52.40;39.03;;;1.70;99.90;;;;;;5014301;28;20256;-70
2022/01/15 11:22:51;;;;;;;51.63;37.95;;;1.90;99.90;;;;;;5014720;28;20231;-70
2022/01/15 11:25:18;;;;;;;55.13;39.08;;;1.90;99.90;;;;;;5014631;28;20579;-70
2022/01/15 11:27:45;;;;;;;55.00;39.97;;;2.00;99.90;;;;;;5014306;28;20292;-71
2022/01/15 11:30:12;;;;;;;57.22;38.47;;;2.00;99.90;;;;;;5014414;28;20208;-70
2022/01/15 11:32:43;;;;;;;49.05;37.38;;;2.10;99.90;;;;;;5014461;28;20228;-71
2022/01/15 11:35:10;;;;;;;51.50;38.47;;;2.20;99.90;;;;;;5014795;28;20271;-69
2022/01/15 11:37:49;;;;;;;49.38;36.85;;;2.10;99.90;;;;;;5014289;28;20308;-69
2022/01/15 11:40:47;;;;;;;50.28;37.28;;;2.10;99.90;;;;;;5013831;28;20244;-68
2022/01/15 11:43:50;;;;;;;45.13;34.97;;;2.10;99.90;;;;;;4980682;28;20733;-68
2022/01/15 11:46:29;;;;;;;53.22;36.80;;;2.10;99.90;;;;;;5014234;28;20286;-68
2022/01/15 11:49:37;;;;;;;51.20;38.08;;;2.20;99.90;;;;;;5013922;28;20204;-68
2022/01/15 11:52:43;;;;;;;51.88;36.83;;;2.20;99.90;;;;;;5014282;28;20229;-68
2022/01/15 11:55:14;;;;;;;48.42;36.40;;;2.30;99.90;;;;;;5014106;28;20213;-68
2022/01/15 11:57:58;;;;;;;46.65;35.40;;;2.40;99.90;;;;;;5013692;28;20204;-68
2022/01/15 12:00:32;;;;;;;46.05;35.95;;;2.50;99.90;;;;;;5012250;28;20319;-69
2022/01/15 12:03:02;;;;;;;51.15;36.05;;;2.50;99.90;;;;;;5014163;28;20258;-69
2022/01/15 12:05:31;;;;;;;47.47;36.53;;;2.40;99.90;;;;;;5013898;28;20207;-68
2022/01/15 12:08:23;;;;;;;44.58;34.30;;;2.50;99.90;;;;;;5013494;28;20217;-68
2022/01/15 12:10:53;;;;;;;49.58;34.65;;;2.50;99.90;;;;;;5013709;28;20204;-68
2022/01/15 12:13:21;;;;;;;49.38;35.03;;;2.50;99.90;;;;;;5014001;28;20231;-68
2022/01/15 12:15:50;;;;;;;49.97;35.63;;;2.50;99.90;;;;;;5013805;28;20662;-69
2022/01/15 12:18:18;;;;;;;47.45;36.33;;;2.60;99.90;;;;;;5013527;28;20234;-69
2022/01/15 12:20:46;;;;;;;47.03;35.10;;;2.80;99.90;;;;;;5012935;28;20275;-69
2022/01/15 12:23:26;;;;;;;48.10;35.30;;;2.80;99.90;;;;;;5013849;28;20225;-69
2022/01/15 12:25:55;;;;;;;45.13;33.58;;;2.90;99.90;;;;;;5013910;28;20208;-69
2022/01/15 12:28:24;;;;;;;47.38;35.00;;;3.00;99.90;;;;;;5013357;28;20205;-69
2022/01/15 12:30:54;;;;;;;47.33;35.40;;;3.00;99.90;;;;;;5013463;28;20205;-69
2022/01/15 12:33:21;;;;;;;45.30;34.53;;;3.00;99.90;;;;;;5013628;28;20229;-69
2022/01/15 12:35:50;;;;;;;45.45;35.05;;;3.10;99.90;;;;;;5013881;28;20205;-69
2022/01/15 12:38:25;;;;;;;42.55;33.40;;;3.10;99.90;;;;;;5013111;28;20205;-69
2022/01/15 12:40:55;;;;;;;45.55;35.42;;;3.10;99.90;;;;;;5012957;28;20255;-69
2022/01/15 12:43:24;;;;;;;45.67;34.05;;;3.10;99.90;;;;;;5013539;28;20229;-71
2022/01/15 12:45:54;;;;;;;47.40;34.15;;;3.20;99.90;;;;;;5013274;28;20204;-72
2022/01/15 12:48:23;;;;;;;46.90;32.53;;;3.30;99.90;;;;;;5012851;28;20209;-70
2022/01/15 12:50:52;;;;;;;41.83;31.35;;;3.60;99.90;;;;;;5013138;28;20200;-71
2022/01/15 12:53:21;;;;;;;38.67;30.88;;;4.00;99.90;;;;;;5013202;28;20664;-74
2022/01/15 12:55:48;;;;;;;39.85;31.52;;;4.20;99.90;;;;;;5012955;28;20435;-69
2022/01/15 12:58:18;;;;;;;41.65;31.02;;;4.20;99.90;;;;;;5013195;28;20209;-69
2022/01/15 13:00:45;;;;;;;47.83;33.85;;;4.40;99.90;;;;;;5013030;28;20224;-69